Time,TemperatureF,DewpointF,PressureIn,WindDirection,WindDirectionDegrees,WindSpeedMPH,WindSpeedGustMPH,Humidity,HourlyPrecipIn,Conditions,Clouds,dailyrainin,SoftwareType,DateUTC
2013-06-15 00:01:00,77.0,72.5,29.95,SW,219,0.0,2.0,86,0.00,,,0.00,meteohub,2013-06-15 04:01:00,
2013-06-15 00:06:00,76.8,72.3,29.95,WSW,257,0.0,2.0,86,0.00,,,0.00,meteohub,2013-06-15 04:06:00,
2013-06-15 00:11:00,76.8,72.7,29.95,West,268,0.0,2.0,87,0.00,,,0.00,meteohub,2013-06-15 04:11:00,
2013-06-15 00:16:00,76.8,72.7,29.95,West,268,0.0,2.0,87,0.00,,,0.00,meteohub,2013-06-15 04:16:00,
2013-06-15 00:21:00,76.8,72.7,29.94,WSW,249,0.0,2.0,87,0.00,,,0.00,meteohub,2013-06-15 04:21:00,
2013-06-15 00:26:00,76.8,72.7,29.95,SW,224,0.0,3.0,87,0.00,,,0.00,meteohub,2013-06-15 04:26:00,
2013-06-15 00:31:00,76.8,72.7,29.95,SW,230,0.0,3.0,87,0.00,,,0.00,meteohub,2013-06-15 04:31:00,
2013-06-15 00:36:00,76.8,72.7,29.94,WSW,248,0.0,3.0,87,0.00,,,0.00,meteohub,2013-06-15 04:36:00,
2013-06-15 00:41:00,76.8,73.0,29.94,WSW,248,0.0,2.0,88,0.00,,,0.00,meteohub,2013-06-15 04:41:00,
2013-06-15 00:46:00,76.8,73.0,29.95,WSW,248,0.0,2.0,88,0.00,,,0.00,meteohub,2013-06-15 04:46:00,
2013-06-15 00:51:00,76.6,72.9,29.95,WSW,248,0.0,2.0,88,0.00,,,0.00,meteohub,2013-06-15 04:51:00,
2013-06-15 00:56:00,76.6,72.9,29.95,WSW,248,0.0,1.0,88,0.00,,,0.00,meteohub,2013-06-15 04:56:00,
2013-06-15 01:01:00,76.6,72.9,29.95,WSW,248,0.0,1.0,88,0.00,,,0.00,meteohub,2013-06-15 05:01:00,
2013-06-15 01:06:00,76.6,73.2,29.95,WSW,248,0.0,0.0,89,0.00,,,0.00,meteohub,2013-06-15 05:06:00,
2013-06-15 01:11:00,76.6,73.2,29.95,SW,217,0.0,0.0,89,0.00,,,0.00,meteohub,2013-06-15 05:11:00,
2013-06-15 01:16:00,76.6,73.2,29.95,WSW,244,0.0,1.0,89,0.00,,,0.00,meteohub,2013-06-15 05:16:00,
2013-06-15 01:21:00,76.6,73.2,29.95,WSW,246,0.0,1.0,89,0.00,,,0.00,meteohub,2013-06-15 05:21:00,
2013-06-15 01:26:00,76.5,73.0,29.95,WSW,246,0.0,1.0,89,0.00,,,0.00,meteohub,2013-06-15 05:26:00,
2013-06-15 01:31:00,76.5,73.0,29.94,WSW,246,0.0,1.0,89,0.00,,,0.00,meteohub,2013-06-15 05:31:00,
2013-06-15 01:36:00,76.5,73.2,29.94,WSW,246,0.0,0.0,90,0.00,,,0.00,meteohub,2013-06-15 05:36:00,
2013-06-15 01:41:00,76.5,73.2,29.94,SW,224,0.0,2.0,90,0.00,,,0.00,meteohub,2013-06-15 05:41:00,
2013-06-15 01:46:00,76.5,73.2,29.94,SW,225,0.0,2.0,90,0.00,,,0.00,meteohub,2013-06-15 05:46:00,
2013-06-15 01:51:00,76.5,73.2,29.94,SW,226,0.0,2.0,90,0.00,,,0.00,meteohub,2013-06-15 05:51:00,
2013-06-15 01:56:00,76.5,73.2,29.94,WSW,248,0.0,2.0,90,0.00,,,0.00,meteohub,2013-06-15 05:56:00,
2013-06-15 02:01:00,76.5,73.2,29.94,WSW,251,0.0,3.0,90,0.00,,,0.00,meteohub,2013-06-15 06:01:00,
2013-06-15 02:06:00,76.5,73.6,29.94,WSW,246,0.0,3.0,91,0.00,,,0.00,meteohub,2013-06-15 06:06:00,
2013-06-15 02:11:00,76.5,73.6,29.95,WSW,246,0.0,3.0,91,0.00,,,0.00,meteohub,2013-06-15 06:11:00,
2013-06-15 02:16:00,76.5,73.6,29.94,WSW,251,0.0,3.0,91,0.00,,,0.00,meteohub,2013-06-15 06:16:00,
2013-06-15 02:21:00,76.5,73.6,29.95,WSW,251,0.0,2.0,91,0.00,,,0.00,meteohub,2013-06-15 06:21:00,
2013-06-15 02:26:00,76.5,73.6,29.95,WSW,251,0.0,2.0,91,0.00,,,0.00,meteohub,2013-06-15 06:26:00,
2013-06-15 02:31:00,76.5,73.6,29.95,WSW,251,1.0,2.0,91,0.00,,,0.00,meteohub,2013-06-15 06:31:00,
2013-06-15 02:36:00,76.3,73.8,29.95,West,263,1.0,2.0,92,0.00,,,0.00,meteohub,2013-06-15 06:36:00,
2013-06-15 02:41:00,76.5,73.9,29.94,SW,233,0.0,2.0,92,0.00,,,0.00,meteohub,2013-06-15 06:41:00,
2013-06-15 02:46:00,76.3,73.8,29.94,West,259,0.0,2.0,92,0.00,,,0.00,meteohub,2013-06-15 06:46:00,
2013-06-15 02:51:00,76.3,73.8,29.94,WNW,284,4.0,4.0,92,0.00,,,0.00,meteohub,2013-06-15 06:51:00,
2013-06-15 02:56:00,76.3,74.1,29.94,WSW,252,0.0,4.0,93,0.00,,,0.00,meteohub,2013-06-15 06:56:00,
2013-06-15 03:01:00,76.3,74.1,29.94,WSW,252,0.0,4.0,93,0.00,,,0.00,meteohub,2013-06-15 07:01:00,
2013-06-15 03:06:00,76.3,73.8,29.93,WSW,252,0.0,4.0,92,0.00,,,0.00,meteohub,2013-06-15 07:06:00,
2013-06-15 03:11:00,76.3,74.1,29.93,WSW,250,0.0,3.0,93,0.00,,,0.00,meteohub,2013-06-15 07:11:00,
2013-06-15 03:16:00,76.3,74.1,29.93,West,277,0.0,2.0,93,0.00,,,0.00,meteohub,2013-06-15 07:16:00,
2013-06-15 03:21:00,76.3,74.1,29.93,West,278,0.0,3.0,93,0.00,,,0.00,meteohub,2013-06-15 07:21:00,
2013-06-15 03:26:00,76.3,74.1,29.93,West,278,2.0,3.0,93,0.00,,,0.00,meteohub,2013-06-15 07:26:00,
2013-06-15 03:31:00,76.3,74.1,29.93,West,273,1.0,4.0,93,0.00,,,0.00,meteohub,2013-06-15 07:31:00,
2013-06-15 03:36:00,76.3,74.1,29.94,West,279,1.0,4.0,93,0.00,,,0.00,meteohub,2013-06-15 07:36:00,
2013-06-15 03:41:00,76.3,74.1,29.94,West,280,0.0,4.0,93,0.00,,,0.00,meteohub,2013-06-15 07:41:00,
2013-06-15 03:46:00,76.3,74.1,29.94,West,274,0.0,3.0,93,0.00,,,0.00,meteohub,2013-06-15 07:46:00,
2013-06-15 03:51:00,76.1,73.9,29.94,West,269,0.0,3.0,93,0.00,,,0.00,meteohub,2013-06-15 07:51:00,
2013-06-15 03:56:00,76.1,73.9,29.94,WNW,282,0.0,3.0,93,0.00,,,0.00,meteohub,2013-06-15 07:56:00,
2013-06-15 04:01:00,75.9,73.8,29.94,West,281,0.0,3.0,93,0.00,,,0.00,meteohub,2013-06-15 08:01:00,
2013-06-15 04:06:00,75.9,73.8,29.94,West,281,0.0,2.0,93,0.00,,,0.00,meteohub,2013-06-15 08:06:00,
2013-06-15 04:11:00,75.9,73.8,29.95,West,281,0.0,1.0,93,0.00,,,0.00,meteohub,2013-06-15 08:11:00,
2013-06-15 04:16:00,75.7,73.6,29.95,West,281,0.0,1.0,93,0.00,,,0.00,meteohub,2013-06-15 08:16:00,
2013-06-15 04:21:00,75.7,73.6,29.95,West,281,0.0,1.0,93,0.00,,,0.00,meteohub,2013-06-15 08:21:00,
2013-06-15 04:26:00,75.7,73.6,29.95,West,281,0.0,1.0,93,0.00,,,0.00,meteohub,2013-06-15 08:26:00,
2013-06-15 04:31:00,75.6,73.4,29.95,West,281,0.0,1.0,93,0.00,,,0.00,meteohub,2013-06-15 08:31:00,
2013-06-15 04:36:00,75.6,73.4,29.95,West,281,0.0,0.0,93,0.00,,,0.00,meteohub,2013-06-15 08:36:00,
2013-06-15 04:41:00,75.6,73.8,29.95,West,281,0.0,0.0,94,0.00,,,0.00,meteohub,2013-06-15 08:41:00,
2013-06-15 04:46:00,75.4,73.6,29.96,West,281,0.0,1.0,94,0.00,,,0.00,meteohub,2013-06-15 08:46:00,
2013-06-15 04:51:00,75.4,73.6,29.96,West,281,0.0,2.0,94,0.00,,,0.00,meteohub,2013-06-15 08:51:00,
2013-06-15 04:56:00,75.4,73.6,29.96,West,281,0.0,2.0,94,0.00,,,0.00,meteohub,2013-06-15 08:56:00,
2013-06-15 05:01:00,75.2,73.4,29.96,West,281,0.0,2.0,94,0.00,,,0.00,meteohub,2013-06-15 09:01:00,
2013-06-15 05:06:00,75.0,73.2,29.96,West,281,0.0,1.0,94,0.00,,,0.00,meteohub,2013-06-15 09:06:00,
2013-06-15 05:11:00,75.0,73.2,29.96,West,281,0.0,1.0,94,0.00,,,0.00,meteohub,2013-06-15 09:11:00,
2013-06-15 05:16:00,75.0,73.4,29.96,West,281,0.0,1.0,95,0.00,,,0.00,meteohub,2013-06-15 09:16:00,
2013-06-15 05:21:00,75.0,73.4,29.96,West,281,0.0,1.0,95,0.00,,,0.00,meteohub,2013-06-15 09:21:00,
2013-06-15 05:26:00,75.0,73.4,29.97,West,281,0.0,1.0,95,0.00,,,0.00,meteohub,2013-06-15 09:26:00,
2013-06-15 05:31:00,75.0,73.4,29.97,West,281,0.0,1.0,95,0.00,,,0.00,meteohub,2013-06-15 09:31:00,
2013-06-15 05:36:00,74.8,73.2,29.97,West,281,0.0,0.0,95,0.00,,,0.00,meteohub,2013-06-15 09:36:00,
2013-06-15 05:41:00,74.8,73.2,29.97,West,281,0.0,0.0,95,0.00,,,0.00,meteohub,2013-06-15 09:41:00,
2013-06-15 05:46:00,74.7,73.2,29.97,West,281,0.0,0.0,95,0.00,,,0.00,meteohub,2013-06-15 09:46:00,
2013-06-15 05:51:00,74.7,73.2,29.97,West,281,0.0,0.0,95,0.00,,,0.00,meteohub,2013-06-15 09:51:00,
2013-06-15 05:56:00,74.7,73.2,29.97,West,281,0.0,0.0,95,0.00,,,0.00,meteohub,2013-06-15 09:56:00,
2013-06-15 06:01:00,74.7,73.2,29.98,West,281,0.0,1.0,95,0.00,,,0.00,meteohub,2013-06-15 10:01:00,
2013-06-15 06:06:00,74.5,73.0,29.97,West,281,0.0,2.0,95,0.00,,,0.00,meteohub,2013-06-15 10:06:00,
2013-06-15 06:11:00,74.7,73.4,29.98,West,281,0.0,2.0,96,0.00,,,0.00,meteohub,2013-06-15 10:11:00,
2013-06-15 06:16:00,74.7,73.4,29.98,West,281,0.0,2.0,96,0.00,,,0.00,meteohub,2013-06-15 10:16:00,
2013-06-15 06:21:00,74.7,73.4,29.98,West,281,0.0,1.0,96,0.00,,,0.00,meteohub,2013-06-15 10:21:00,
2013-06-15 06:26:00,74.7,73.4,29.98,West,281,0.0,0.0,96,0.00,,,0.00,meteohub,2013-06-15 10:26:00,
2013-06-15 06:31:00,74.5,73.0,29.99,West,281,0.0,0.0,95,0.00,,,0.00,meteohub,2013-06-15 10:31:00,
2013-06-15 06:36:00,74.5,73.2,29.99,West,281,0.0,0.0,96,0.00,,,0.00,meteohub,2013-06-15 10:36:00,
2013-06-15 06:41:00,74.3,73.0,29.99,West,281,0.0,0.0,96,0.00,,,0.00,meteohub,2013-06-15 10:41:00,
2013-06-15 06:46:00,74.1,72.9,29.99,West,281,0.0,0.0,96,0.00,,,0.00,meteohub,2013-06-15 10:46:00,
2013-06-15 06:51:00,74.1,72.9,29.99,West,281,0.0,0.0,96,0.00,,,0.00,meteohub,2013-06-15 10:51:00,
2013-06-15 06:56:00,74.1,72.9,29.99,West,281,0.0,0.0,96,0.00,,,0.00,meteohub,2013-06-15 10:56:00,
2013-06-15 07:01:00,74.1,72.9,29.99,West,281,0.0,0.0,96,0.00,,,0.00,meteohub,2013-06-15 11:01:00,
2013-06-15 07:06:00,74.3,73.4,29.99,West,281,0.0,0.0,97,0.00,,,0.00,meteohub,2013-06-15 11:06:00,
2013-06-15 07:11:00,74.5,73.6,30.00,West,281,0.0,0.0,97,0.00,,,0.00,meteohub,2013-06-15 11:11:00,
2013-06-15 07:16:00,74.5,73.6,30.00,West,281,0.0,0.0,97,0.00,,,0.00,meteohub,2013-06-15 11:16:00,
2013-06-15 07:21:00,74.7,73.8,30.00,West,281,0.0,0.0,97,0.00,,,0.00,meteohub,2013-06-15 11:21:00,
2013-06-15 07:26:00,75.0,74.1,30.00,West,281,0.0,0.0,97,0.00,,,0.00,meteohub,2013-06-15 11:26:00,
2013-06-15 07:31:00,75.4,74.5,30.00,West,281,0.0,0.0,97,0.00,,,0.00,meteohub,2013-06-15 11:31:00,
2013-06-15 07:36:00,75.6,74.3,30.00,West,281,0.0,0.0,96,0.00,,,0.00,meteohub,2013-06-15 11:36:00,
2013-06-15 07:41:00,75.7,74.5,30.00,West,281,0.0,0.0,96,0.00,,,0.00,meteohub,2013-06-15 11:41:00,
2013-06-15 07:46:00,75.9,74.7,30.00,West,281,1.0,1.0,96,0.00,,,0.00,meteohub,2013-06-15 11:46:00,
2013-06-15 07:51:00,76.3,74.7,30.00,West,281,0.0,1.0,95,0.00,,,0.00,meteohub,2013-06-15 11:51:00,
2013-06-15 07:56:00,76.5,74.8,30.00,WNW,296,0.0,2.0,95,0.00,,,0.00,meteohub,2013-06-15 11:56:00,
2013-06-15 08:01:00,76.8,75.0,30.00,West,272,1.0,3.0,94,0.00,,,0.00,meteohub,2013-06-15 12:01:00,
2013-06-15 08:06:00,77.4,75.2,30.00,NW,322,1.0,3.0,93,0.00,,,0.00,meteohub,2013-06-15 12:06:00,
2013-06-15 08:11:00,77.9,75.4,30.00,NNW,332,0.0,3.0,92,0.00,,,0.00,meteohub,2013-06-15 12:11:00,
2013-06-15 08:16:00,78.4,75.6,30.00,NW,306,0.0,3.0,91,0.00,,,0.00,meteohub,2013-06-15 12:16:00,
2013-06-15 08:21:00,78.8,75.6,30.00,WNW,295,0.0,6.0,90,0.00,,,0.00,meteohub,2013-06-15 12:21:00,
2013-06-15 08:26:00,79.2,75.6,30.00,NW,309,0.0,6.0,89,0.00,,,0.00,meteohub,2013-06-15 12:26:00,
2013-06-15 08:31:00,79.7,75.7,30.01,NW,319,0.0,6.0,88,0.00,,,0.00,meteohub,2013-06-15 12:31:00,
2013-06-15 08:36:00,80.1,76.1,30.01,NE,43,0.0,3.0,88,0.00,,,0.00,meteohub,2013-06-15 12:36:00,
2013-06-15 08:41:00,80.8,76.5,30.01,NE,44,3.0,4.0,87,0.00,,,0.00,meteohub,2013-06-15 12:41:00,
2013-06-15 08:46:00,81.1,76.3,30.02,WSW,257,1.0,4.0,85,0.00,,,0.00,meteohub,2013-06-15 12:46:00,
2013-06-15 08:51:00,81.7,76.3,30.02,WNW,290,1.0,4.0,84,0.00,,,0.00,meteohub,2013-06-15 12:51:00,
2013-06-15 08:56:00,81.9,76.1,30.02,WNW,284,0.0,4.0,83,0.00,,,0.00,meteohub,2013-06-15 12:56:00,
2013-06-15 09:01:00,81.9,76.1,30.02,West,277,0.0,4.0,83,0.00,,,0.00,meteohub,2013-06-15 13:01:00,
2013-06-15 09:06:00,82.2,76.1,30.02,NNW,327,0.0,2.0,82,0.00,,,0.00,meteohub,2013-06-15 13:06:00,
2013-06-15 09:11:00,82.6,75.7,30.02,NW,312,0.0,4.0,80,0.00,,,0.00,meteohub,2013-06-15 13:11:00,
2013-06-15 09:16:00,82.8,75.9,30.02,NNW,327,0.0,4.0,80,0.00,,,0.00,meteohub,2013-06-15 13:16:00,
2013-06-15 09:21:00,82.9,76.1,30.01,WNW,300,0.0,4.0,80,0.00,,,0.00,meteohub,2013-06-15 13:21:00,
2013-06-15 09:26:00,83.1,75.9,30.02,West,277,0.0,5.0,79,0.00,,,0.00,meteohub,2013-06-15 13:26:00,
2013-06-15 09:31:00,83.7,76.1,30.02,WNW,287,0.0,5.0,78,0.00,,,0.00,meteohub,2013-06-15 13:31:00,
2013-06-15 09:36:00,84.0,76.1,30.02,SW,219,1.0,5.0,77,0.00,,,0.00,meteohub,2013-06-15 13:36:00,
2013-06-15 09:41:00,84.4,75.6,30.02,West,274,1.0,4.0,75,0.00,,,0.00,meteohub,2013-06-15 13:41:00,
2013-06-15 09:46:00,84.6,76.1,30.02,NW,311,0.0,4.0,76,0.00,,,0.00,meteohub,2013-06-15 13:46:00,
2013-06-15 09:51:00,84.7,75.6,30.02,West,269,0.0,4.0,74,0.00,,,0.00,meteohub,2013-06-15 13:51:00,
2013-06-15 09:56:00,85.5,76.3,30.02,NNE,29,2.0,4.0,74,0.00,,,0.00,meteohub,2013-06-15 13:56:00,
2013-06-15 10:01:00,86.2,76.1,30.02,WNW,291,1.0,4.0,72,0.00,,,0.00,meteohub,2013-06-15 14:01:00,
2013-06-15 10:06:00,86.4,75.9,30.02,NNE,30,0.0,4.0,71,0.00,,,0.00,meteohub,2013-06-15 14:06:00,
2013-06-15 10:11:00,86.4,75.4,30.01,NNE,13,1.0,4.0,70,0.00,,,0.00,meteohub,2013-06-15 14:11:00,
2013-06-15 10:16:00,86.5,75.6,30.02,West,275,0.0,3.0,70,0.00,,,0.00,meteohub,2013-06-15 14:16:00,
2013-06-15 10:21:00,86.9,75.0,30.02,NW,323,0.0,3.0,68,0.00,,,0.00,meteohub,2013-06-15 14:21:00,
2013-06-15 10:26:00,87.1,75.2,30.01,NNE,27,0.0,2.0,68,0.00,,,0.00,meteohub,2013-06-15 14:26:00,
2013-06-15 10:31:00,87.1,73.9,30.02,West,276,0.0,4.0,65,0.00,,,0.00,meteohub,2013-06-15 14:31:00,
2013-06-15 10:36:00,87.3,75.4,30.01,NW,323,1.0,4.0,68,0.00,,,0.00,meteohub,2013-06-15 14:36:00,
2013-06-15 10:41:00,87.4,74.3,30.01,NW,323,0.0,4.0,65,0.00,,,0.00,meteohub,2013-06-15 14:41:00,
2013-06-15 10:46:00,87.4,74.3,30.01,West,267,2.0,3.0,65,0.00,,,0.00,meteohub,2013-06-15 14:46:00,
2013-06-15 10:51:00,87.4,74.3,30.01,West,278,3.0,3.0,65,0.00,,,0.00,meteohub,2013-06-15 14:51:00,
2013-06-15 10:56:00,87.8,74.1,30.01,WSW,246,0.0,3.0,64,0.00,,,0.00,meteohub,2013-06-15 14:56:00,
2013-06-15 11:01:00,88.2,74.5,30.02,NE,36,0.0,3.0,64,0.00,,,0.00,meteohub,2013-06-15 15:01:00,
2013-06-15 11:06:00,88.3,74.7,30.02,NNE,17,0.0,5.0,64,0.00,,,0.00,meteohub,2013-06-15 15:06:00,
2013-06-15 11:11:00,88.9,74.7,30.02,NNE,16,0.0,5.0,63,0.00,,,0.00,meteohub,2013-06-15 15:11:00,
2013-06-15 11:16:00,89.1,74.3,30.02,NNE,21,4.0,5.0,62,0.00,,,0.00,meteohub,2013-06-15 15:16:00,
2013-06-15 11:21:00,89.1,72.9,30.02,NE,37,1.0,4.0,59,0.00,,,0.00,meteohub,2013-06-15 15:21:00,
2013-06-15 11:26:00,88.9,72.7,30.02,SW,224,0.0,4.0,59,0.00,,,0.00,meteohub,2013-06-15 15:26:00,
2013-06-15 11:31:00,89.1,73.9,30.02,NE,44,0.0,4.0,61,0.00,,,0.00,meteohub,2013-06-15 15:31:00,
2013-06-15 11:36:00,89.1,73.4,30.03,West,263,0.0,4.0,60,0.00,,,0.00,meteohub,2013-06-15 15:36:00,
2013-06-15 11:41:00,89.4,74.7,30.03,East,86,0.0,4.0,62,0.00,,,0.00,meteohub,2013-06-15 15:41:00,
2013-06-15 11:46:00,90.3,76.5,30.03,ESE,103,2.0,4.0,64,0.00,,,0.00,meteohub,2013-06-15 15:46:00,
2013-06-15 11:51:00,90.0,76.1,30.02,South,187,0.0,4.0,64,0.00,,,0.00,meteohub,2013-06-15 15:51:00,
2013-06-15 11:56:00,89.8,75.9,30.03,SSW,209,1.0,3.0,64,0.00,,,0.00,meteohub,2013-06-15 15:56:00,
2013-06-15 12:01:00,90.0,73.2,30.03,NNW,348,1.0,3.0,58,0.00,,,0.00,meteohub,2013-06-15 16:01:00,
2013-06-15 12:06:00,90.7,73.9,30.03,NNE,30,0.0,3.0,58,0.00,,,0.00,meteohub,2013-06-15 16:06:00,
2013-06-15 12:11:00,91.4,75.6,30.02,ESE,112,0.0,3.0,60,0.00,,,0.00,meteohub,2013-06-15 16:11:00,
2013-06-15 12:16:00,91.9,76.6,30.02,ESE,121,0.0,3.0,61,0.00,,,0.00,meteohub,2013-06-15 16:16:00,
2013-06-15 12:21:00,91.8,77.4,30.02,NE,49,3.0,3.0,63,0.00,,,0.00,meteohub,2013-06-15 16:21:00,
2013-06-15 12:26:00,91.2,76.8,30.02,East,97,1.0,3.0,63,0.00,,,0.00,meteohub,2013-06-15 16:26:00,
2013-06-15 12:31:00,90.7,76.8,30.02,SSE,163,0.0,5.0,64,0.00,,,0.00,meteohub,2013-06-15 16:31:00,
2013-06-15 12:36:00,90.5,77.2,30.02,SSE,147,1.0,6.0,65,0.00,,,0.00,meteohub,2013-06-15 16:36:00,
2013-06-15 12:41:00,90.3,76.5,30.02,SE,137,0.0,6.0,64,0.00,,,0.00,meteohub,2013-06-15 16:41:00,
2013-06-15 12:46:00,89.6,76.3,30.02,ESE,118,3.0,7.0,65,0.00,,,0.00,meteohub,2013-06-15 16:46:00,
2013-06-15 12:51:00,89.2,76.5,30.02,NE,51,1.0,7.0,66,0.00,,,0.00,meteohub,2013-06-15 16:51:00,
2013-06-15 12:56:00,89.2,75.9,30.02,NE,44,1.0,7.0,65,0.00,,,0.00,meteohub,2013-06-15 16:56:00,
2013-06-15 13:01:00,89.1,76.3,30.02,ENE,61,1.0,5.0,66,0.00,,,0.00,meteohub,2013-06-15 17:01:00,
2013-06-15 13:06:00,89.4,76.1,30.02,East,86,0.0,5.0,65,0.00,,,0.00,meteohub,2013-06-15 17:06:00,
2013-06-15 13:11:00,89.1,75.7,30.02,SSE,149,0.0,6.0,65,0.00,,,0.00,meteohub,2013-06-15 17:11:00,
2013-06-15 13:16:00,88.9,75.6,30.02,North,351,0.0,6.0,65,0.00,,,0.00,meteohub,2013-06-15 17:16:00,
2013-06-15 13:21:00,88.9,75.6,30.02,East,82,0.0,8.0,65,0.00,,,0.00,meteohub,2013-06-15 17:21:00,
2013-06-15 13:26:00,89.1,76.3,30.02,South,180,0.0,8.0,66,0.00,,,0.00,meteohub,2013-06-15 17:26:00,
2013-06-15 13:31:00,89.2,75.9,30.01,SSE,157,4.0,8.0,65,0.00,,,0.00,meteohub,2013-06-15 17:31:00,
2013-06-15 13:36:00,89.1,75.7,30.01,ENE,70,1.0,5.0,65,0.00,,,0.00,meteohub,2013-06-15 17:36:00,
2013-06-15 13:41:00,89.1,76.3,30.01,South,177,2.0,5.0,66,0.00,,,0.00,meteohub,2013-06-15 17:41:00,
2013-06-15 13:46:00,88.9,75.6,30.01,NE,39,2.0,6.0,65,0.00,,,0.00,meteohub,2013-06-15 17:46:00,
2013-06-15 13:51:00,89.1,76.6,30.01,ESE,105,0.0,6.0,67,0.00,,,0.00,meteohub,2013-06-15 17:51:00,
2013-06-15 13:56:00,89.2,75.9,30.01,NE,41,1.0,8.0,65,0.00,,,0.00,meteohub,2013-06-15 17:56:00,
2013-06-15 14:01:00,89.1,75.7,30.01,ESE,118,3.0,8.0,65,0.00,,,0.00,meteohub,2013-06-15 18:01:00,
2013-06-15 14:06:00,89.1,76.3,30.02,NNE,33,3.0,8.0,66,0.00,,,0.00,meteohub,2013-06-15 18:06:00,
2013-06-15 14:11:00,89.2,75.9,30.01,NE,46,1.0,5.0,65,0.00,,,0.00,meteohub,2013-06-15 18:11:00,
2013-06-15 14:16:00,89.2,75.9,30.01,NNE,26,1.0,5.0,65,0.00,,,0.00,meteohub,2013-06-15 18:16:00,
2013-06-15 14:21:00,89.8,75.9,30.01,East,82,2.0,5.0,64,0.00,,,0.00,meteohub,2013-06-15 18:21:00,
2013-06-15 14:26:00,89.6,75.4,30.01,ENE,59,0.0,6.0,63,0.00,,,0.00,meteohub,2013-06-15 18:26:00,
2013-06-15 14:31:00,89.4,75.6,30.01,East,96,1.0,6.0,64,0.00,,,0.00,meteohub,2013-06-15 18:31:00,
2013-06-15 14:36:00,89.4,75.6,30.01,NNE,30,0.0,6.0,64,0.00,,,0.00,meteohub,2013-06-15 18:36:00,
2013-06-15 14:41:00,89.4,76.1,30.01,East,91,2.0,5.0,65,0.00,,,0.00,meteohub,2013-06-15 18:41:00,
2013-06-15 14:46:00,89.4,75.6,30.00,NNE,25,4.0,6.0,64,0.00,,,0.00,meteohub,2013-06-15 18:46:00,
2013-06-15 14:51:00,89.2,75.9,30.00,ENE,74,0.0,6.0,65,0.00,,,0.00,meteohub,2013-06-15 18:51:00,
2013-06-15 14:56:00,89.2,75.9,30.00,ENE,76,0.0,6.0,65,0.00,,,0.00,meteohub,2013-06-15 18:56:00,
2013-06-15 15:01:00,89.8,76.5,30.00,South,187,0.0,6.0,65,0.00,,,0.00,meteohub,2013-06-15 19:01:00,
2013-06-15 15:06:00,90.5,76.6,30.00,ENE,70,2.0,6.0,64,0.00,,,0.00,meteohub,2013-06-15 19:06:00,
2013-06-15 15:11:00,90.5,76.1,30.00,East,84,1.0,5.0,63,0.00,,,0.00,meteohub,2013-06-15 19:11:00,
2013-06-15 15:16:00,90.0,76.1,30.00,East,92,0.0,6.0,64,0.00,,,0.00,meteohub,2013-06-15 19:16:00,
2013-06-15 15:21:00,89.8,76.5,30.00,East,82,0.0,6.0,65,0.00,,,0.00,meteohub,2013-06-15 19:21:00,
2013-06-15 15:26:00,90.0,75.7,29.99,ESE,123,2.0,6.0,63,0.00,,,0.00,meteohub,2013-06-15 19:26:00,
2013-06-15 15:31:00,90.0,76.6,29.99,SE,135,0.0,5.0,65,0.00,,,0.00,meteohub,2013-06-15 19:31:00,
2013-06-15 15:36:00,89.8,75.6,29.99,East,89,1.0,5.0,63,0.00,,,0.00,meteohub,2013-06-15 19:36:00,
2013-06-15 15:41:00,90.0,76.6,29.99,SSE,155,0.0,5.0,65,0.00,,,0.00,meteohub,2013-06-15 19:41:00,
2013-06-15 15:46:00,90.0,76.6,29.99,ESE,109,3.0,5.0,65,0.00,,,0.00,meteohub,2013-06-15 19:46:00,
2013-06-15 15:50:00,89.6,75.7,29.99,SSE,158,3.0,7.0,64,0.00,,,0.00,meteohub,2013-06-15 19:50:00,
2013-06-15 15:55:00,89.1,76.3,29.99,NE,42,1.0,7.0,66,0.00,,,0.00,meteohub,2013-06-15 19:55:00,
2013-06-15 16:00:00,88.7,76.3,29.99,ESE,109,1.0,7.0,67,0.00,,,0.00,meteohub,2013-06-15 20:00:00,
2013-06-15 16:05:00,88.5,76.1,29.99,East,91,0.0,6.0,67,0.00,,,0.00,meteohub,2013-06-15 20:05:00,
2013-06-15 16:10:00,88.3,76.5,29.99,East,80,1.0,6.0,68,0.00,,,0.00,meteohub,2013-06-15 20:10:00,
2013-06-15 16:15:00,88.3,75.9,29.99,SE,142,0.0,6.0,67,0.00,,,0.00,meteohub,2013-06-15 20:15:00,
2013-06-15 16:20:00,88.2,75.7,29.99,East,88,0.0,7.0,67,0.00,,,0.00,meteohub,2013-06-15 20:20:00,
2013-06-15 16:25:00,88.2,76.3,29.99,SSE,148,3.0,7.0,68,0.00,,,0.00,meteohub,2013-06-15 20:25:00,
2013-06-15 16:30:00,88.2,76.3,29.99,East,82,0.0,7.0,68,0.00,,,0.00,meteohub,2013-06-15 20:30:00,
2013-06-15 16:35:00,88.0,76.1,29.99,East,101,0.0,7.0,68,0.00,,,0.00,meteohub,2013-06-15 20:35:00,
2013-06-15 16:40:00,88.2,76.3,29.99,South,173,2.0,7.0,68,0.00,,,0.00,meteohub,2013-06-15 20:40:00,
2013-06-15 16:45:00,88.3,76.5,29.99,WNW,292,0.0,7.0,68,0.00,,,0.00,meteohub,2013-06-15 20:45:00,
2013-06-15 16:50:00,88.2,76.3,29.99,SSE,148,1.0,5.0,68,0.00,,,0.00,meteohub,2013-06-15 20:50:00,
2013-06-15 16:55:00,88.2,76.3,29.99,SE,136,0.0,5.0,68,0.00,,,0.00,meteohub,2013-06-15 20:55:00,
2013-06-15 17:00:00,88.0,76.1,29.99,SE,126,3.0,5.0,68,0.00,,,0.00,meteohub,2013-06-15 21:00:00,
2013-06-15 17:05:00,87.6,76.1,29.99,SSE,159,1.0,6.0,69,0.00,,,0.00,meteohub,2013-06-15 21:05:00,
2013-06-15 17:10:00,87.6,76.1,29.99,North,0,0.0,6.0,69,0.00,,,0.00,meteohub,2013-06-15 21:10:00,
2013-06-15 17:15:00,88.0,76.5,29.99,South,179,2.0,6.0,69,0.00,,,0.00,meteohub,2013-06-15 21:15:00,
2013-06-15 17:20:00,87.6,76.1,29.99,SE,124,3.0,4.0,69,0.00,,,0.00,meteohub,2013-06-15 21:20:00,
2013-06-15 17:25:00,87.6,76.1,29.99,NE,47,0.0,4.0,69,0.00,,,0.00,meteohub,2013-06-15 21:25:00,
2013-06-15 17:30:00,87.4,75.9,29.99,East,100,3.0,5.0,69,0.00,,,0.00,meteohub,2013-06-15 21:30:00,
2013-06-15 17:35:00,87.4,76.5,29.99,ENE,76,2.0,5.0,70,0.00,,,0.00,meteohub,2013-06-15 21:35:00,
2013-06-15 17:40:00,87.1,75.7,29.99,SE,135,1.0,7.0,69,0.00,,,0.00,meteohub,2013-06-15 21:40:00,
2013-06-15 17:45:00,87.1,76.1,29.99,NE,37,1.0,7.0,70,0.00,,,0.00,meteohub,2013-06-15 21:45:00,
2013-06-15 17:50:00,86.9,76.3,29.99,East,79,0.0,7.0,71,0.00,,,0.00,meteohub,2013-06-15 21:50:00,
2013-06-15 17:55:00,86.9,75.9,29.99,SE,126,2.0,6.0,70,0.00,,,0.00,meteohub,2013-06-15 21:55:00,
2013-06-15 18:00:00,86.7,75.7,29.99,East,85,0.0,6.0,70,0.00,,,0.00,meteohub,2013-06-15 22:00:00,
2013-06-15 18:05:00,86.5,75.9,29.99,East,99,1.0,5.0,71,0.00,,,0.00,meteohub,2013-06-15 22:05:00,
2013-06-15 18:10:00,86.4,75.9,29.99,ESE,103,1.0,7.0,71,0.00,,,0.00,meteohub,2013-06-15 22:10:00,
2013-06-15 18:15:00,86.2,76.1,29.99,SE,139,2.0,7.0,72,0.00,,,0.00,meteohub,2013-06-15 22:15:00,
2013-06-15 18:20:00,85.8,75.4,29.99,ENE,72,2.0,7.0,71,0.00,,,0.00,meteohub,2013-06-15 22:20:00,
2013-06-15 18:25:00,85.6,75.6,29.99,SSE,150,2.0,6.0,72,0.00,,,0.00,meteohub,2013-06-15 22:25:00,
2013-06-15 18:30:00,85.8,75.4,29.99,SE,132,1.0,6.0,71,0.00,,,0.00,meteohub,2013-06-15 22:30:00,
2013-06-15 18:35:00,85.6,75.2,29.99,NE,51,1.0,4.0,71,0.00,,,0.00,meteohub,2013-06-15 22:35:00,
2013-06-15 18:40:00,85.5,75.0,29.99,East,81,2.0,5.0,71,0.00,,,0.00,meteohub,2013-06-15 22:40:00,
2013-06-15 18:45:00,85.1,75.0,29.99,ESE,108,0.0,6.0,72,0.00,,,0.00,meteohub,2013-06-15 22:45:00,
2013-06-15 18:50:00,84.9,74.8,29.99,ENE,65,2.0,6.0,72,0.00,,,0.00,meteohub,2013-06-15 22:50:00,
2013-06-15 18:55:00,84.9,74.8,30.00,NE,51,1.0,6.0,72,0.00,,,0.00,meteohub,2013-06-15 22:55:00,
2013-06-15 19:00:00,84.7,75.2,30.00,ENE,78,0.0,5.0,73,0.00,,,0.00,meteohub,2013-06-15 23:00:00,
2013-06-15 19:05:00,84.4,74.8,30.00,SE,132,0.0,5.0,73,0.00,,,0.00,meteohub,2013-06-15 23:05:00,
2013-06-15 19:10:00,84.0,74.8,30.00,NW,315,2.0,3.0,74,0.00,,,0.00,meteohub,2013-06-15 23:10:00,
2013-06-15 19:15:00,83.7,74.8,30.01,ESE,104,0.0,3.0,75,0.00,,,0.00,meteohub,2013-06-15 23:15:00,
2013-06-15 19:20:00,83.5,75.0,30.01,NE,51,0.0,3.0,76,0.00,,,0.00,meteohub,2013-06-15 23:20:00,
2013-06-15 19:25:00,83.1,74.8,30.01,East,94,0.0,3.0,76,0.00,,,0.00,meteohub,2013-06-15 23:25:00,
2013-06-15 19:30:00,82.9,75.0,30.01,ESE,119,0.0,3.0,77,0.00,,,0.00,meteohub,2013-06-15 23:30:00,
2013-06-15 19:35:00,82.9,75.4,30.01,SSE,165,0.0,2.0,78,0.00,,,0.00,meteohub,2013-06-15 23:35:00,
2013-06-15 19:40:00,82.8,75.2,30.01,SSE,153,0.0,2.0,78,0.00,,,0.00,meteohub,2013-06-15 23:40:00,
2013-06-15 19:45:00,82.8,75.2,30.01,ENE,71,0.0,2.0,78,0.00,,,0.00,meteohub,2013-06-15 23:45:00,
2013-06-15 19:50:00,82.6,75.0,30.01,South,186,0.0,3.0,78,0.00,,,0.00,meteohub,2013-06-15 23:50:00,
2013-06-15 19:55:00,82.4,74.8,30.01,East,96,0.0,3.0,78,0.00,,,0.00,meteohub,2013-06-15 23:55:00,
2013-06-15 20:00:00,82.2,75.0,30.01,SSE,166,0.0,3.0,79,0.00,,,0.00,meteohub,2013-06-16 00:00:00,
2013-06-15 20:05:00,82.2,75.0,30.01,ENE,63,0.0,2.0,79,0.00,,,0.00,meteohub,2013-06-16 00:05:00,
2013-06-15 20:10:00,82.0,74.8,30.01,SE,128,0.0,4.0,79,0.00,,,0.00,meteohub,2013-06-16 00:10:00,
2013-06-15 20:15:00,82.0,75.2,30.01,SSW,192,0.0,4.0,80,0.00,,,0.00,meteohub,2013-06-16 00:15:00,
2013-06-15 20:20:00,81.9,75.0,30.01,SE,136,0.0,4.0,80,0.00,,,0.00,meteohub,2013-06-16 00:20:00,
2013-06-15 20:25:00,81.7,74.8,30.01,ESE,113,0.0,3.0,80,0.00,,,0.00,meteohub,2013-06-16 00:25:00,
2013-06-15 20:30:00,81.7,74.8,30.01,ESE,113,0.0,1.0,80,0.00,,,0.00,meteohub,2013-06-16 00:30:00,
2013-06-15 20:35:00,81.5,74.7,30.01,ESE,107,0.0,0.0,80,0.00,,,0.00,meteohub,2013-06-16 00:35:00,
2013-06-15 20:40:00,81.3,74.8,30.02,ESE,107,0.0,0.0,81,0.00,,,0.00,meteohub,2013-06-16 00:40:00,
2013-06-15 20:45:00,81.1,74.7,30.02,ESE,107,0.0,0.0,81,0.00,,,0.00,meteohub,2013-06-16 00:45:00,
2013-06-15 20:50:00,81.1,74.7,30.02,ESE,107,0.0,0.0,81,0.00,,,0.00,meteohub,2013-06-16 00:50:00,
2013-06-15 20:55:00,81.0,74.7,30.02,ESE,109,0.0,0.0,81,0.00,,,0.00,meteohub,2013-06-16 00:55:00,
2013-06-15 21:00:00,81.0,75.0,30.02,ESE,109,0.0,1.0,82,0.00,,,0.00,meteohub,2013-06-16 01:00:00,
2013-06-15 21:05:00,81.0,75.0,30.02,ESE,109,0.0,1.0,82,0.00,,,0.00,meteohub,2013-06-16 01:05:00,
2013-06-15 21:10:00,80.8,74.8,30.02,ESE,107,0.0,1.0,82,0.00,,,0.00,meteohub,2013-06-16 01:10:00,
2013-06-15 21:15:00,80.8,74.8,30.02,ESE,107,0.0,0.0,82,0.00,,,0.00,meteohub,2013-06-16 01:15:00,
2013-06-15 21:20:00,80.8,74.8,30.02,SE,138,0.0,2.0,82,0.00,,,0.00,meteohub,2013-06-16 01:20:00,
2013-06-15 21:25:00,80.6,74.7,30.02,ESE,109,0.0,2.0,82,0.00,,,0.00,meteohub,2013-06-16 01:25:00,
2013-06-15 21:30:00,80.6,74.7,30.02,ESE,109,0.0,2.0,82,0.00,,,0.00,meteohub,2013-06-16 01:30:00,
2013-06-15 21:35:00,80.4,74.5,30.03,ESE,109,0.0,2.0,82,0.00,,,0.00,meteohub,2013-06-16 01:35:00,
2013-06-15 21:40:00,80.4,74.8,30.03,ESE,111,0.0,0.0,83,0.00,,,0.00,meteohub,2013-06-16 01:40:00,
2013-06-15 21:45:00,80.2,74.7,30.03,ESE,109,0.0,0.0,83,0.00,,,0.00,meteohub,2013-06-16 01:45:00,
2013-06-15 21:50:00,80.2,74.7,30.03,SE,142,0.0,2.0,83,0.00,,,0.00,meteohub,2013-06-16 01:50:00,
2013-06-15 21:55:00,80.2,75.0,30.03,SE,132,0.0,2.0,84,0.00,,,0.00,meteohub,2013-06-16 01:55:00,
2013-06-15 22:00:00,80.2,75.0,30.03,SE,126,0.0,2.0,84,0.00,,,0.00,meteohub,2013-06-16 02:00:00,
2013-06-15 22:05:00,80.2,74.7,30.03,NE,46,0.0,2.0,83,0.00,,,0.00,meteohub,2013-06-16 02:05:00,
2013-06-15 22:10:00,80.2,74.7,30.03,ESE,110,0.0,2.0,83,0.00,,,0.00,meteohub,2013-06-16 02:10:00,
2013-06-15 22:15:00,80.2,74.7,30.03,ESE,111,0.0,2.0,83,0.00,,,0.00,meteohub,2013-06-16 02:15:00,
2013-06-15 22:20:00,80.2,74.7,30.04,ESE,111,0.0,2.0,83,0.00,,,0.00,meteohub,2013-06-16 02:20:00,
2013-06-15 22:25:00,80.1,74.5,30.04,ESE,109,0.0,1.0,83,0.00,,,0.00,meteohub,2013-06-16 02:25:00,
2013-06-15 22:30:00,80.1,74.5,30.04,ESE,107,0.0,1.0,83,0.00,,,0.00,meteohub,2013-06-16 02:30:00,
2013-06-15 22:35:00,80.1,74.5,30.04,East,101,0.0,1.0,83,0.00,,,0.00,meteohub,2013-06-16 02:35:00,
2013-06-15 22:40:00,80.1,74.5,30.04,East,101,0.0,1.0,83,0.00,,,0.00,meteohub,2013-06-16 02:40:00,
2013-06-15 22:45:00,80.1,74.5,30.05,East,101,0.0,1.0,83,0.00,,,0.00,meteohub,2013-06-16 02:45:00,
2013-06-15 22:50:00,79.9,74.3,30.05,East,101,0.0,0.0,83,0.00,,,0.00,meteohub,2013-06-16 02:50:00,
2013-06-15 22:55:00,79.9,74.3,30.05,East,100,0.0,0.0,83,0.00,,,0.00,meteohub,2013-06-16 02:55:00,
2013-06-15 23:00:00,79.9,74.3,30.05,SE,127,0.0,2.0,83,0.00,,,0.00,meteohub,2013-06-16 03:00:00,
2013-06-15 23:05:00,79.9,74.3,30.05,SE,143,0.0,2.0,83,0.00,,,0.00,meteohub,2013-06-16 03:05:00,
2013-06-15 23:10:00,79.9,74.7,30.05,ESE,111,0.0,2.0,84,0.00,,,0.00,meteohub,2013-06-16 03:10:00,
2013-06-15 23:15:00,79.9,74.7,30.05,ESE,111,0.0,1.0,84,0.00,,,0.00,meteohub,2013-06-16 03:15:00,
2013-06-15 23:20:00,79.9,74.7,30.06,ESE,118,0.0,1.0,84,0.00,,,0.00,meteohub,2013-06-16 03:20:00,
2013-06-15 23:25:00,79.9,74.7,30.06,ESE,119,0.0,1.0,84,0.00,,,0.00,meteohub,2013-06-16 03:25:00,
2013-06-15 23:30:00,79.9,74.7,30.06,South,181,0.0,2.0,84,0.00,,,0.00,meteohub,2013-06-16 03:30:00,
2013-06-15 23:35:00,79.9,74.7,30.06,South,180,0.0,2.0,84,0.00,,,0.00,meteohub,2013-06-16 03:35:00,
2013-06-15 23:40:00,79.9,75.0,30.06,East,97,0.0,2.0,85,0.00,,,0.00,meteohub,2013-06-16 03:40:00,
2013-06-15 23:45:00,79.9,75.0,30.06,East,98,0.0,1.0,85,0.00,,,0.00,meteohub,2013-06-16 03:45:00,
2013-06-15 23:50:00,79.9,75.0,30.06,SSE,167,0.0,1.0,85,0.00,,,0.00,meteohub,2013-06-16 03:50:00,
2013-06-15 23:55:00,79.7,74.8,30.05,SSE,167,0.0,1.0,85,0.00,,,0.00,meteohub,2013-06-16 03:55:00,